Time;durP1;ratioP1;P1;durP2;ratioP2;P2;SDS_P1;SDS_P2;PMS_P1;PMS_P2;Temp;Humidity;BMP_temperature;BMP_pressure;BME280_temperature;BME280_humidity;BME280_pressure;Samples;Min_cycle;Max_cycle;Signal;HPM_P1;HPM_P2
2023/09/29 00:01:34;;;;;;;18.80;4.45;;;;;;;-145.50;100.00;65435.88;5051388;28;20542;-72
2023/09/29 00:04:01;;;;;;;12.50;4.03;;;;;;;-145.50;100.00;65435.88;5068862;28;20417;-72
2023/09/29 00:06:28;;;;;;;12.82;4.28;;;;;;;-145.50;100.00;65435.88;5048869;28;20052;-73
2023/09/29 00:08:55;;;;;;;16.58;4.40;;;;;;;-145.50;100.00;65435.88;5066211;28;20049;-72
2023/09/29 00:11:22;;;;;;;16.73;5.13;;;;;;;-145.50;100.00;65435.88;5045287;28;20060;-71
2023/09/29 00:13:48;;;;;;;17.77;4.55;;;;;;;-145.50;100.00;65435.88;5058340;28;20049;-71
2023/09/29 00:16:15;;;;;;;14.48;4.38;;;;;;;-145.50;100.00;65435.88;5061449;28;20232;-70
2023/09/29 00:18:42;;;;;;;13.98;4.03;;;;;;;-145.50;100.00;65435.88;5059414;28;20055;-72
2023/09/29 00:21:08;;;;;;;18.23;5.00;;;;;;;-145.50;100.00;65435.88;5054817;28;20052;-71
2023/09/29 00:23:35;;;;;;;15.38;4.85;;;;;;;-145.50;100.00;65435.88;5048753;28;20060;-71
2023/09/29 00:26:02;;;;;;;13.68;4.20;;;;;;;-145.50;100.00;65435.88;5044568;28;20051;-71
2023/09/29 00:28:28;;;;;;;13.50;4.30;;;;;;;-145.50;100.00;65435.88;5049808;28;20052;-71
2023/09/29 00:30:55;;;;;;;9.73;3.47;;;;;;;-145.50;100.00;65435.88;5062067;28;20043;-70
2023/09/29 00:33:21;;;;;;;17.75;4.25;;;;;;;-145.50;100.00;65435.88;5062516;28;20088;-71
2023/09/29 00:35:48;;;;;;;12.75;4.25;;;;;;;-145.50;100.00;65435.88;5051487;28;20056;-70
2023/09/29 00:38:14;;;;;;;16.48;4.35;;;;;;;-145.50;100.00;65435.88;5056905;28;20055;-70
2023/09/29 00:40:41;;;;;;;12.68;3.88;;;;;;;-145.50;100.00;65435.88;5055256;28;20056;-70
2023/09/29 00:43:08;;;;;;;15.57;4.13;;;;;;;-145.50;100.00;65435.88;5055579;28;20117;-71
2023/09/29 00:45:35;;;;;;;11.50;4.28;;;;;;;-145.50;100.00;65435.88;5052298;28;20044;-71
2023/09/29 00:48:13;;;;;;;13.65;4.00;;;;;;;-145.50;100.00;65435.88;5046448;28;20132;-70
2023/09/29 00:50:40;;;;;;;19.00;4.30;;;;;;;-145.50;100.00;65435.88;5054753;28;20067;-71
2023/09/29 00:53:14;;;;;;;14.82;4.57;;;;;;;-145.50;100.00;65435.88;5046794;28;20048;-72
2023/09/29 00:55:42;;;;;;;12.93;3.92;;;;;;;-145.50;100.00;65435.88;5056258;28;20044;-70
2023/09/29 00:58:09;;;;;;;18.60;5.10;;;;;;;-145.50;100.00;65435.88;5060227;28;20052;-70
2023/09/29 01:00:40;;;;;;;12.73;4.93;;;;;;;-145.50;100.00;65435.88;5059432;28;20041;-70
2023/09/29 01:03:11;;;;;;;14.52;4.68;;;;;;;-145.50;100.00;65435.88;5037745;28;20072;-70
2023/09/29 01:05:46;;;;;;;11.63;5.22;;;;;;;-145.50;100.00;65435.88;5045132;28;20056;-70
2023/09/29 01:08:16;;;;;;;15.65;6.13;;;;;;;-145.50;100.00;65435.88;5057343;28;20082;-70
2023/09/29 01:10:44;;;;;;;16.30;5.72;;;;;;;-145.50;100.00;65435.88;5041634;28;20051;-70
2023/09/29 01:13:12;;;;;;;14.75;5.03;;;;;;;-145.50;100.00;65435.88;5063747;28;20567;-70
2023/09/29 01:15:39;;;;;;;18.17;5.85;;;;;;;-145.50;100.00;65435.88;5056538;28;20044;-71
2023/09/29 01:18:07;;;;;;;18.50;6.05;;;;;;;-145.50;100.00;65435.88;5054542;28;20067;-70
2023/09/29 01:20:34;;;;;;;14.30;5.72;;;;;;;-145.50;100.00;65435.88;5041710;28;20037;-70
2023/09/29 01:23:05;;;;;;;15.63;6.20;;;;;;;-145.50;100.00;65435.88;5049542;28;20489;-70
2023/09/29 01:25:33;;;;;;;15.45;5.95;;;;;;;-145.50;100.00;65435.88;5050485;28;20048;-70
2023/09/29 01:28:05;;;;;;;16.35;5.85;;;;;;;-145.50;100.00;65435.88;5058423;28;20056;-71
2023/09/29 01:30:32;;;;;;;15.25;6.10;;;;;;;-145.50;100.00;65435.88;5060521;28;20129;-70
2023/09/29 01:32:59;;;;;;;12.07;6.00;;;;;;;-145.50;100.00;65435.88;5058855;28;20545;-70
2023/09/29 01:35:30;;;;;;;18.60;7.03;;;;;;;-145.50;100.00;65435.88;5046844;28;20044;-70
2023/09/29 01:38:00;;;;;;;16.17;6.03;;;;;;;-145.50;100.00;65435.88;5040318;28;20119;-70
2023/09/29 01:40:28;;;;;;;19.35;6.30;;;;;;;-145.50;100.00;65435.88;5054908;28;20797;-70
2023/09/29 01:42:56;;;;;;;13.23;5.90;;;;;;;-145.50;100.00;65435.88;5056423;28;20139;-70
2023/09/29 01:45:25;;;;;;;17.20;5.88;;;;;;;-145.50;100.00;65435.88;5063617;28;20197;-70
2023/09/29 01:47:52;;;;;;;17.25;6.88;;;;;;;-145.50;100.00;65435.88;5057951;28;20540;-71
2023/09/29 01:50:20;;;;;;;17.52;6.65;;;;;;;-145.50;100.00;65435.88;5052484;28;20068;-70
2023/09/29 01:52:48;;;;;;;16.63;5.93;;;;;;;-145.50;100.00;65435.88;5040508;28;20072;-71
2023/09/29 01:55:19;;;;;;;12.93;5.88;;;;;;;-145.50;100.00;65435.88;5047081;28;20049;-72
2023/09/29 01:57:47;;;;;;;13.18;6.00;;;;;;;-145.50;100.00;65435.88;5049707;28;20397;-73
2023/09/29 02:00:19;;;;;;;13.50;6.30;;;;;;;-145.50;100.00;65435.88;5044739;28;20428;-71
2023/09/29 02:02:47;;;;;;;14.00;6.07;;;;;;;-145.50;100.00;65435.88;5059395;28;20140;-71
2023/09/29 02:05:18;;;;;;;15.25;6.28;;;;;;;-145.50;100.00;65435.88;5055410;28;20143;-71
2023/09/29 02:07:45;;;;;;;16.52;5.70;;;;;;;-145.50;100.00;65435.88;5055471;28;20055;-70
2023/09/29 02:10:12;;;;;;;11.20;5.72;;;;;;;-145.50;100.00;65435.88;5064039;28;20700;-72
2023/09/29 02:12:54;;;;;;;18.10;6.15;;;;;;;-145.50;100.00;65435.88;5047214;28;20056;-71
2023/09/29 02:15:21;;;;;;;13.55;6.10;;;;;;;-145.50;100.00;65435.88;5043795;28;20324;-70
2023/09/29 02:17:48;;;;;;;13.90;5.83;;;;;;;-145.50;100.00;65435.88;5042188;28;20056;-72
2023/09/29 02:20:17;;;;;;;16.70;6.30;;;;;;;-145.50;100.00;65435.88;5045959;28;20057;-70
2023/09/29 02:22:45;;;;;;;11.15;5.95;;;;;;;-145.50;100.00;65435.88;5060750;28;20060;-71
2023/09/29 02:25:17;;;;;;;14.05;6.30;;;;;;;-145.50;100.00;65435.88;5038709;28;20139;-71
2023/09/29 02:27:43;;;;;;;11.88;6.18;;;;;;;-145.50;100.00;65435.88;5053034;28;20477;-70
2023/09/29 02:30:11;;;;;;;16.20;5.90;;;;;;;-145.50;100.00;65435.88;5050881;28;20098;-72
2023/09/29 02:32:40;;;;;;;12.40;5.90;;;;;;;-145.50;100.00;65435.88;5047852;28;20393;-72
2023/09/29 02:35:08;;;;;;;11.70;5.60;;;;;;;-145.50;100.00;65435.88;5055043;28;20055;-71
2023/09/29 02:37:35;;;;;;;15.27;5.38;;;;;;;-145.50;100.00;65435.88;5065090;28;20060;-71
2023/09/29 02:40:04;;;;;;;7.95;4.60;;;;;;;-145.50;100.00;65435.88;5058962;28;20501;-71
2023/09/29 02:42:31;;;;;;;14.15;5.47;;;;;;;-145.50;100.00;65435.88;5056707;28;20067;-71
2023/09/29 02:44:58;;;;;;;11.65;5.68;;;;;;;-145.50;100.00;65435.88;5058505;28;20095;-71
2023/09/29 02:47:25;;;;;;;13.10;5.47;;;;;;;-145.50;100.00;65435.88;5046378;28;20049;-70
2023/09/29 02:49:52;;;;;;;10.30;5.23;;;;;;;-145.50;100.00;65435.88;5060495;28;20056;-71
2023/09/29 02:52:20;;;;;;;15.50;5.90;;;;;;;-145.50;100.00;65435.88;5053705;28;20476;-71
2023/09/29 02:54:47;;;;;;;;;;;;;;;-145.50;100.00;65435.88;5057786;28;20122;-71
2023/09/29 02:57:14;;;;;;;11.55;5.13;;;;;;;-145.50;100.00;65435.88;5065260;28;20365;-71
2023/09/29 02:59:40;;;;;;;11.07;5.00;;;;;;;-145.50;100.00;65435.88;5043633;28;20060;-71
2023/09/29 03:02:07;;;;;;;14.77;5.75;;;;;;;-145.50;100.00;65435.88;5049618;28;20060;-71
2023/09/29 03:04:34;;;;;;;13.20;6.40;;;;;;;-145.50;100.00;65435.88;5051077;28;20513;-71
2023/09/29 03:07:00;;;;;;;13.82;9.52;;;;;;;-145.50;100.00;65435.88;5065673;28;20114;-71
2023/09/29 03:09:29;;;;;;;14.18;10.70;;;;;;;-145.50;100.00;65435.88;5057605;28;20056;-70
2023/09/29 03:11:56;;;;;;;14.48;7.00;;;;;;;-145.50;100.00;65435.88;5062646;28;20047;-71
2023/09/29 03:14:22;;;;;;;11.00;5.95;;;;;;;-145.50;100.00;65435.88;5044370;28;20103;-70
2023/09/29 03:16:49;;;;;;;11.25;6.18;;;;;;;-145.50;100.00;65435.88;5057794;28;20052;-71
2023/09/29 03:19:15;;;;;;;10.00;5.43;;;;;;;-145.50;100.00;65435.88;5064922;28;20060;-71
2023/09/29 03:21:42;;;;;;;14.25;5.75;;;;;;;-145.50;100.00;65435.88;5051634;28;20544;-70
2023/09/29 03:24:09;;;;;;;8.60;5.20;;;;;;;-145.50;100.00;65435.88;5067049;28;20064;-70
2023/09/29 03:26:36;;;;;;;12.07;5.68;;;;;;;-145.50;100.00;65435.88;5054108;28;20887;-71
2023/09/29 03:29:04;;;;;;;11.18;5.70;;;;;;;-145.50;100.00;65435.88;5052283;28;20058;-70
2023/09/29 03:31:30;;;;;;;9.90;4.80;;;;;;;-145.50;100.00;65435.88;5053826;28;20241;-71
2023/09/29 03:33:57;;;;;;;12.23;4.40;;;;;;;-145.50;100.00;65435.88;5060791;28;20122;-70
2023/09/29 03:36:23;;;;;;;7.32;3.75;;;;;;;-145.50;100.00;65435.88;5058748;28;20076;-70
2023/09/29 03:38:50;;;;;;;11.48;4.50;;;;;;;-145.50;100.00;65435.88;5042213;28;20055;-70
2023/09/29 03:41:16;;;;;;;8.60;3.67;;;;;;;-145.50;100.00;65435.88;5056471;28;20067;-71
2023/09/29 03:43:43;;;;;;;11.30;4.15;;;;;;;-145.50;100.00;65435.88;5059031;28;20118;-71
2023/09/29 03:46:19;;;;;;;9.50;3.70;;;;;;;-145.50;100.00;65435.88;5065642;28;20488;-70
2023/09/29 03:48:47;;;;;;;8.45;3.28;;;;;;;-145.50;100.00;65435.88;5056300;28;20044;-71
2023/09/29 03:51:23;;;;;;;9.93;4.03;;;;;;;-145.50;100.00;65435.88;5059007;28;20053;-70
2023/09/29 03:53:54;;;;;;;7.50;3.53;;;;;;;-145.50;100.00;65435.88;5055205;28;20162;-71
2023/09/29 03:56:25;;;;;;;13.13;4.00;;;;;;;-145.50;100.00;65435.88;5049126;28;20061;-72
2023/09/29 03:58:55;;;;;;;10.68;4.07;;;;;;;-145.50;100.00;65435.88;5064276;28;20058;-72
2023/09/29 04:01:22;;;;;;;9.20;3.42;;;;;;;-145.50;100.00;65435.88;5060441;28;20064;-71
2023/09/29 04:03:48;;;;;;;8.27;3.40;;;;;;;-145.50;100.00;65435.88;5066462;28;20653;-70
2023/09/29 04:06:15;;;;;;;8.75;4.00;;;;;;;-145.50;100.00;65435.88;5054271;28;20547;-70
2023/09/29 04:08:42;;;;;;;9.00;3.33;;;;;;;-145.50;100.00;65435.88;5037753;28;20991;-70
2023/09/29 04:11:10;;;;;;;7.80;3.33;;;;;;;-145.50;100.00;65435.88;5067164;28;20053;-70
2023/09/29 04:13:37;;;;;;;7.10;3.40;;;;;;;-145.50;100.00;65435.88;5050303;28;20127;-71
2023/09/29 04:16:06;;;;;;;6.97;3.97;;;;;;;-145.50;100.00;65435.88;5056171;28;20060;-71
2023/09/29 04:18:33;;;;;;;9.02;3.78;;;;;;;-145.50;100.00;65435.88;5055336;28;20512;-71
2023/09/29 04:21:04;;;;;;;5.72;2.80;;;;;;;-145.50;100.00;65435.88;5061385;28;20523;-71
2023/09/29 04:23:30;;;;;;;11.20;3.58;;;;;;;-145.50;100.00;65435.88;5061217;28;20041;-70
2023/09/29 04:25:57;;;;;;;5.72;3.08;;;;;;;-145.50;100.00;65435.88;5060085;28;20053;-71
2023/09/29 04:28:23;;;;;;;6.75;3.30;;;;;;;-145.50;100.00;65435.88;5060514;28;20079;-70
2023/09/29 04:30:50;;;;;;;9.32;3.15;;;;;;;-145.50;100.00;65435.88;5053728;28;20045;-70
2023/09/29 04:33:18;;;;;;;8.68;3.40;;;;;;;-145.50;100.00;65435.88;5064005;28;20059;-71
2023/09/29 04:35:45;;;;;;;;;;;;;;;-145.50;100.00;65435.88;5052310;28;20098;-71
2023/09/29 04:38:11;;;;;;;5.20;2.63;;;;;;;-145.50;100.00;65435.88;5063257;28;19934;-70
2023/09/29 04:40:38;;;;;;;8.68;3.20;;;;;;;-145.50;100.00;65435.88;5054933;28;20049;-70
2023/09/29 04:43:06;;;;;;;7.25;3.35;;;;;;;-145.50;100.00;65435.88;5046837;28;20716;-71
2023/09/29 04:45:33;;;;;;;6.65;2.70;;;;;;;-145.50;100.00;65435.88;5062233;28;20052;-70
2023/09/29 04:48:01;;;;;;;6.78;2.85;;;;;;;-145.50;100.00;65435.88;5048845;28;20086;-70
2023/09/29 04:50:29;;;;;;;8.82;3.28;;;;;;;-145.50;100.00;65435.88;5047429;28;20401;-71
2023/09/29 04:52:57;;;;;;;6.85;3.08;;;;;;;-145.50;100.00;65435.88;5044261;28;20059;-71
2023/09/29 04:55:24;;;;;;;8.30;3.53;;;;;;;-145.50;100.00;65435.88;5060692;28;20049;-70
2023/09/29 04:57:52;;;;;;;5.57;3.00;;;;;;;-145.50;100.00;65435.88;5065785;28;20627;-71
2023/09/29 05:00:19;;;;;;;9.20;3.50;;;;;;;-145.50;100.00;65435.88;5050608;28;20403;-70
2023/09/29 05:02:46;;;;;;;8.65;3.65;;;;;;;-145.50;100.00;65435.88;5062639;28;20135;-70
2023/09/29 05:05:13;;;;;;;7.50;3.47;;;;;;;-145.50;100.00;65435.88;5051833;28;20919;-71
2023/09/29 05:07:43;;;;;;;6.57;2.90;;;;;;;-145.50;100.00;65435.88;5059122;28;20049;-71
2023/09/29 05:10:11;;;;;;;10.70;3.90;;;;;;;-145.50;100.00;65435.88;5055042;28;20052;-70
2023/09/29 05:12:37;;;;;;;6.72;3.08;;;;;;;-145.50;100.00;65435.88;5054800;28;20041;-70
2023/09/29 05:15:05;;;;;;;6.80;4.20;;;;;;;-145.50;100.00;65435.88;5062741;28;20159;-70
2023/09/29 05:17:31;;;;;;;13.98;5.00;;;;;;;-145.50;100.00;65435.88;5039074;28;20049;-70
2023/09/29 05:20:16;;;;;;;10.60;4.60;;;;;;;-145.50;100.00;65435.88;5059630;28;20102;-70
2023/09/29 05:22:42;;;;;;;9.02;5.25;;;;;;;-145.50;100.00;65435.88;5054168;28;20083;-70
2023/09/29 05:25:09;;;;;;;8.88;4.90;;;;;;;-145.50;100.00;65435.88;5059637;28;20546;-70
2023/09/29 05:27:36;;;;;;;7.65;4.65;;;;;;;-145.50;100.00;65435.88;5046800;28;20452;-70
2023/09/29 05:30:03;;;;;;;7.68;3.97;;;;;;;-145.50;100.00;65435.88;5061252;28;20059;-70
2023/09/29 05:32:29;;;;;;;6.38;3.80;;;;;;;-145.50;100.00;65435.88;5055358;28;20083;-70
2023/09/29 05:34:58;;;;;;;8.80;3.92;;;;;;;-145.50;100.00;65435.88;5060177;28;20057;-70
2023/09/29 05:37:24;;;;;;;5.95;3.08;;;;;;;-145.50;100.00;65435.88;5054340;28;20366;-70
2023/09/29 05:39:51;;;;;;;6.82;2.88;;;;;;;-145.50;100.00;65435.88;5051770;28;20083;-70
2023/09/29 05:42:21;;;;;;;7.38;3.05;;;;;;;-145.50;100.00;65435.88;5054016;28;20505;-71
2023/09/29 05:44:59;;;;;;;5.43;3.08;;;;;;;-145.50;100.00;65435.88;5040813;28;20052;-72
2023/09/29 05:47:25;;;;;;;5.72;2.85;;;;;;;-145.50;100.00;65435.88;5042266;28;20559;-70
2023/09/29 05:49:52;;;;;;;7.30;3.47;;;;;;;-145.50;100.00;65435.88;5057119;28;20040;-71
2023/09/29 05:52:39;;;;;;;5.25;3.13;;;;;;;-145.50;100.00;65435.88;5055640;28;20060;-70
2023/09/29 05:55:06;;;;;;;8.55;3.80;;;;;;;-145.50;100.00;65435.88;5066332;28;20455;-71
2023/09/29 05:57:32;;;;;;;7.25;3.20;;;;;;;-145.50;100.00;65435.88;5048779;28;20068;-71
2023/09/29 05:59:59;;;;;;;5.75;3.20;;;;;;;-145.50;100.00;65435.88;5051738;28;20420;-71
2023/09/29 06:02:25;;;;;;;8.20;3.10;;;;;;;-145.50;100.00;65435.88;5040715;28;20084;-70
2023/09/29 06:04:52;;;;;;;5.43;3.05;;;;;;;-145.50;100.00;65435.88;5046724;28;20045;-70
2023/09/29 06:07:18;;;;;;;4.82;2.72;;;;;;;-145.50;100.00;65435.88;5042928;28;20056;-70
2023/09/29 06:09:45;;;;;;;10.75;3.40;;;;;;;-145.50;100.00;65435.88;5058978;28;20082;-70
2023/09/29 06:12:12;;;;;;;6.63;3.35;;;;;;;-145.50;100.00;65435.88;5052757;28;20040;-70
2023/09/29 06:14:39;;;;;;;6.35;3.03;;;;;;;-145.50;100.00;65435.88;5036237;28;20049;-70
2023/09/29 06:17:05;;;;;;;4.15;2.85;;;;;;;-145.50;100.00;65435.88;5059378;28;20057;-71
2023/09/29 06:19:32;;;;;;;7.82;3.00;;;;;;;-145.50;100.00;65435.88;5055705;28;20051;-70
2023/09/29 06:21:59;;;;;;;11.00;3.20;;;;;;;-145.50;100.00;65435.88;5056732;28;20558;-70
2023/09/29 06:24:25;;;;;;;6.13;3.03;;;;;;;-145.50;100.00;65435.88;5047738;28;20080;-71
2023/09/29 06:26:52;;;;;;;7.30;2.90;;;;;;;-145.50;100.00;65435.88;5048488;28;20447;-71
2023/09/29 06:29:18;;;;;;;8.98;3.00;;;;;;;-145.50;100.00;65435.88;5060353;28;20259;-70
2023/09/29 06:31:45;;;;;;;7.15;2.88;;;;;;;-145.50;100.00;65435.88;5046230;28;20052;-70
2023/09/29 06:34:12;;;;;;;8.68;3.15;;;;;;;-145.50;100.00;65435.88;5062982;28;20060;-70
2023/09/29 06:36:38;;;;;;;7.60;2.97;;;;;;;-145.50;100.00;65435.88;5054469;28;20048;-70
2023/09/29 06:39:05;;;;;;;5.05;2.53;;;;;;;-145.50;100.00;65435.88;5055706;28;20048;-71
2023/09/29 06:41:31;;;;;;;8.18;2.60;;;;;;;-145.50;100.00;65435.88;5032038;28;20329;-71
2023/09/29 06:43:58;;;;;;;7.15;2.40;;;;;;;-145.50;100.00;65435.88;5046227;28;20140;-70
2023/09/29 06:46:24;;;;;;;7.80;3.03;;;;;;;-145.50;100.00;65435.88;5056409;28;20129;-69
2023/09/29 06:48:52;;;;;;;5.25;2.47;;;;;;;-145.50;100.00;65435.88;5052677;28;20056;-71
2023/09/29 06:51:19;;;;;;;3.88;2.60;;;;;;;-145.50;100.00;65435.88;5054182;28;20049;-70
2023/09/29 06:53:45;;;;;;;4.65;2.65;;;;;;;-145.50;100.00;65435.88;5046108;28;20107;-70
2023/09/29 06:56:15;;;;;;;5.40;2.53;;;;;;;-145.50;100.00;65435.88;5065673;28;20421;-71
2023/09/29 06:58:41;;;;;;;7.15;2.75;;;;;;;-145.50;100.00;65435.88;5049307;28;21081;-70
2023/09/29 07:01:08;;;;;;;6.78;2.97;;;;;;;-145.50;100.00;65435.88;5068089;28;20097;-70
2023/09/29 07:03:34;;;;;;;5.93;2.60;;;;;;;-145.50;100.00;65435.88;5065173;28;20049;-71
2023/09/29 07:06:01;;;;;;;7.45;2.75;;;;;;;-145.50;100.00;65435.88;5053980;28;20434;-70
2023/09/29 07:08:29;;;;;;;7.30;3.15;;;;;;;-145.50;100.00;65435.88;5054735;28;20048;-70
2023/09/29 07:10:56;;;;;;;4.65;2.55;;;;;;;-145.50;100.00;65435.88;5056549;28;20055;-70
2023/09/29 07:13:23;;;;;;;6.43;2.90;;;;;;;-145.50;100.00;65435.88;5066900;28;20053;-70
2023/09/29 07:15:49;;;;;;;6.53;2.95;;;;;;;-145.50;100.00;65435.88;5059199;28;20084;-70
2023/09/29 07:18:16;;;;;;;3.92;2.42;;;;;;;-145.50;100.00;65435.88;5065470;28;20102;-71
2023/09/29 07:20:43;;;;;;;6.55;2.75;;;;;;;-145.50;100.00;65435.88;5062147;28;20493;-70
2023/09/29 07:23:10;;;;;;;6.30;2.63;;;;;;;-145.50;100.00;65435.88;5058593;28;20048;-70
2023/09/29 07:25:38;;;;;;;10.50;2.80;;;;;;;-145.50;100.00;65435.88;5060418;28;20080;-70
2023/09/29 07:28:15;;;;;;;7.05;2.78;;;;;;;-145.50;100.00;65435.88;5052272;28;20064;-70
2023/09/29 07:30:44;;;;;;;6.22;2.50;;;;;;;-145.50;100.00;65435.88;5058302;28;20458;-71
2023/09/29 07:33:11;;;;;;;4.60;2.70;;;;;;;-145.50;100.00;65435.88;5044173;28;20135;-72
2023/09/29 07:35:39;;;;;;;6.38;3.28;;;;;;;-145.50;100.00;65435.88;5052232;28;20056;-70
2023/09/29 07:38:06;;;;;;;4.82;2.55;;;;;;;-145.50;100.00;65435.88;5053663;28;20071;-70
2023/09/29 07:40:33;;;;;;;9.20;2.30;;;;;;;-145.50;100.00;65435.88;5057788;28;20524;-70
2023/09/29 07:43:00;;;;;;;5.45;2.75;;;;;;;-145.50;100.00;65435.88;5059926;28;20084;-70
2023/09/29 07:45:28;;;;;;;5.35;2.47;;;;;;;-145.50;100.00;65435.88;5044728;28;20130;-70
2023/09/29 07:47:54;;;;;;;5.32;2.65;;;;;;;-145.50;100.00;65435.88;5046739;28;20281;-70
2023/09/29 07:50:21;;;;;;;6.88;3.05;;;;;;;-145.50;100.00;65435.88;5053635;28;20560;-71
2023/09/29 07:52:47;;;;;;;4.93;2.65;;;;;;;-145.50;100.00;65435.88;5056027;28;20347;-70
2023/09/29 07:55:14;;;;;;;7.70;3.20;;;;;;;-145.50;100.00;65435.88;5048053;28;20473;-72
2023/09/29 07:57:41;;;;;;;7.70;2.92;;;;;;;-145.50;100.00;65435.88;5043394;28;20830;-70
2023/09/29 08:00:10;;;;;;;7.47;2.88;;;;;;;-145.50;100.00;65435.88;5056155;28;20102;-71
2023/09/29 08:02:37;;;;;;;4.80;2.50;;;;;;;-145.50;100.00;65435.88;5040940;28;20135;-71
2023/09/29 08:05:04;;;;;;;9.38;3.00;;;;;;;-145.50;100.00;65435.88;5065380;28;20091;-70
2023/09/29 08:07:30;;;;;;;5.22;2.53;;;;;;;-145.50;100.00;65435.88;5059342;28;22313;-70
2023/09/29 08:09:57;;;;;;;6.57;2.70;;;;;;;-145.50;100.00;65435.88;5067179;28;20056;-72
2023/09/29 08:12:23;;;;;;;10.23;3.13;;;;;;;-145.50;100.00;65435.88;5053621;28;20041;-70
2023/09/29 08:14:50;;;;;;;10.25;2.75;;;;;;;-145.50;100.00;65435.88;5046723;28;20056;-70
2023/09/29 08:17:20;;;;;;;7.15;2.70;;;;;;;-145.50;100.00;65435.88;5059764;28;20056;-71
2023/09/29 08:19:48;;;;;;;7.50;3.13;;;;;;;-145.50;100.00;65435.88;5048362;28;20704;-71
2023/09/29 08:22:14;;;;;;;6.70;2.35;;;;;;;-145.50;100.00;65435.88;5050512;28;20143;-71
2023/09/29 08:24:55;;;;;;;5.18;2.60;;;;;;;-145.50;100.00;65435.88;5040397;28;20049;-71
2023/09/29 08:27:21;;;;;;;7.68;2.67;;;;;;;-145.50;100.00;65435.88;5049029;28;20464;-72
2023/09/29 08:29:48;;;;;;;7.95;2.53;;;;;;;-145.50;100.00;65435.88;5052256;28;20649;-71
2023/09/29 08:32:15;;;;;;;8.93;2.50;;;;;;;-145.50;100.00;65435.88;5052309;28;20090;-71
2023/09/29 08:34:42;;;;;;;5.70;2.55;;;;;;;-145.50;100.00;65435.88;5056672;28;20080;-71
2023/09/29 08:37:08;;;;;;;4.47;2.40;;;;;;;-145.50;100.00;65435.88;5042988;28;20150;-71
2023/09/29 08:39:35;;;;;;;7.55;2.33;;;;;;;-145.50;100.00;65435.88;5045916;28;20139;-70
2023/09/29 08:42:05;;;;;;;7.75;2.75;;;;;;;-145.50;100.00;65435.88;5046392;28;20231;-71
2023/09/29 08:44:33;;;;;;;7.10;2.28;;;;;;;-145.50;100.00;65435.88;5046940;28;20048;-70
2023/09/29 08:47:01;;;;;;;3.38;2.17;;;;;;;-145.50;100.00;65435.88;5054703;28;20048;-71
2023/09/29 08:49:29;;;;;;;4.97;2.60;;;;;;;-145.50;100.00;65435.88;5053547;28;20498;-71
2023/09/29 08:52:18;;;;;;;6.95;2.72;;;;;;;-145.50;100.00;65435.88;5041545;28;20049;-72
2023/09/29 08:54:45;;;;;;;9.05;2.70;;;;;;;-145.50;100.00;65435.88;5039494;28;20469;-72
2023/09/29 08:57:16;;;;;;;7.45;2.63;;;;;;;-145.50;100.00;65435.88;5050341;28;21486;-71
2023/09/29 08:59:43;;;;;;;;;;;;;;;-145.50;100.00;65435.88;5050424;28;20068;-71
2023/09/29 09:02:12;;;;;;;5.90;2.53;;;;;;;-145.50;100.00;65435.88;5053958;28;19969;-71
2023/09/29 09:04:39;;;;;;;6.25;3.00;;;;;;;-145.50;100.00;65435.88;5046367;28;20052;-70
2023/09/29 09:07:05;;;;;;;6.32;2.63;;;;;;;-145.50;100.00;65435.88;5041111;28;20056;-71
2023/09/29 09:09:35;;;;;;;6.13;2.50;;;;;;;-145.50;100.00;65435.88;5050787;28;21258;-72
2023/09/29 09:12:02;;;;;;;10.57;2.80;;;;;;;-145.50;100.00;65435.88;5048367;28;20164;-71
2023/09/29 09:14:42;;;;;;;9.80;2.72;;;;;;;-145.50;100.00;65435.88;5049758;28;20540;-72
2023/09/29 09:17:10;;;;;;;6.25;2.58;;;;;;;-145.50;100.00;65435.88;5048746;28;20322;-70
2023/09/29 09:19:45;;;;;;;7.47;2.60;;;;;;;-145.50;100.00;65435.88;5048208;28;20302;-72
2023/09/29 09:22:16;;;;;;;8.82;2.65;;;;;;;-145.50;100.00;65435.88;5043357;28;20595;-71
2023/09/29 09:24:48;;;;;;;5.70;2.38;;;;;;;-145.50;100.00;65435.88;5045000;28;20068;-71
2023/09/29 09:27:14;;;;;;;5.35;2.50;;;;;;;-145.50;100.00;65435.88;5055988;28;20067;-71
2023/09/29 09:29:41;;;;;;;5.03;2.60;;;;;;;-145.50;100.00;65435.88;5041455;28;20055;-71
2023/09/29 09:32:10;;;;;;;6.03;2.17;;;;;;;-145.50;100.00;65435.88;5053398;28;20489;-71
2023/09/29 09:34:38;;;;;;;6.40;2.55;;;;;;;-145.50;100.00;65435.88;5045300;28;20492;-72
2023/09/29 09:37:11;;;;;;;6.05;2.65;;;;;;;-145.50;100.00;65435.88;5039548;28;20048;-71
2023/09/29 09:39:39;;;;;;;7.50;2.30;;;;;;;-145.50;100.00;65435.88;5044018;28;20416;-72
2023/09/29 09:42:08;;;;;;;7.15;2.78;;;;;;;-145.50;100.00;65435.88;5056725;28;20102;-73
2023/09/29 09:44:38;;;;;;;8.10;2.80;;;;;;;-145.50;100.00;65435.88;5044144;28;20106;-72
2023/09/29 09:47:10;;;;;;;8.45;2.70;;;;;;;-145.50;100.00;65435.88;5048192;28;20138;-72
2023/09/29 09:49:48;;;;;;;5.93;2.70;;;;;;;-145.50;100.00;65435.88;5047802;28;20170;-72
2023/09/29 09:52:24;;;;;;;6.45;2.50;;;;;;;-145.50;100.00;65435.88;5036812;28;20059;-73
2023/09/29 09:54:58;;;;;;;8.55;2.80;;;;;;;-145.50;100.00;65435.88;5052624;28;20465;-72
2023/09/29 09:57:33;;;;;;;7.22;2.55;;;;;;;-145.50;100.00;65435.88;5046232;28;20114;-72
2023/09/29 10:00:18;;;;;;;7.20;2.63;;;;;;;-145.50;100.00;65435.88;5059276;28;20059;-71
2023/09/29 10:02:47;;;;;;;6.75;2.72;;;;;;;-145.50;100.00;65435.88;5039108;28;20041;-71
2023/09/29 10:05:25;;;;;;;6.13;2.55;;;;;;;-145.50;100.00;65435.88;5050441;28;20056;-73
2023/09/29 10:07:55;;;;;;;7.95;2.80;;;;;;;-145.50;100.00;65435.88;5045182;28;20481;-72
2023/09/29 10:10:47;;;;;;;6.95;2.67;;;;;;;-145.50;100.00;65435.88;5048610;28;20143;-72
2023/09/29 10:13:15;;;;;;;6.47;2.35;;;;;;;-145.50;100.00;65435.88;5044540;28;20049;-73
2023/09/29 10:15:42;;;;;;;;;;;;;;;-145.50;100.00;65435.88;5048804;28;20091;-72
2023/09/29 10:18:19;;;;;;;6.90;3.17;;;;;;;-145.50;100.00;65435.88;5048011;28;20296;-73
2023/09/29 10:20:55;;;;;;;5.68;2.90;;;;;;;-145.50;100.00;65435.88;5041686;28;20067;-72
2023/09/29 10:23:25;;;;;;;7.25;2.53;;;;;;;-145.50;100.00;65435.88;5052532;28;20049;-72
2023/09/29 10:25:59;;;;;;;10.10;3.05;;;;;;;-145.50;100.00;65435.88;5048984;28;20049;-73
2023/09/29 10:28:36;;;;;;;7.47;2.60;;;;;;;-145.50;100.00;65435.88;5048809;28;20049;-72
2023/09/29 10:31:14;;;;;;;6.85;2.90;;;;;;;-145.50;100.00;65435.88;5040945;28;20485;-72
2023/09/29 10:33:54;;;;;;;6.07;2.78;;;;;;;-145.50;100.00;65435.88;5045479;28;20045;-73
2023/09/29 10:36:24;;;;;;;6.38;2.40;;;;;;;-145.50;100.00;65435.88;5048739;28;20052;-72
2023/09/29 10:38:54;;;;;;;5.68;2.38;;;;;;;-145.50;100.00;65435.88;5054450;28;20048;-72
2023/09/29 10:41:23;;;;;;;5.63;2.67;;;;;;;-145.50;100.00;65435.88;5056816;28;20045;-72
2023/09/29 10:44:03;;;;;;;8.85;3.00;;;;;;;-145.50;100.00;65435.88;5047430;28;20089;-73
2023/09/29 10:46:30;;;;;;;6.45;2.47;;;;;;;-145.50;100.00;65435.88;5048216;28;20113;-73
2023/09/29 10:48:58;;;;;;;7.85;2.55;;;;;;;-145.50;100.00;65435.88;5042430;28;20159;-73
2023/09/29 10:51:31;;;;;;;9.23;2.80;;;;;;;-145.50;100.00;65435.88;5054457;28;20477;-72
2023/09/29 10:54:02;;;;;;;5.28;2.40;;;;;;;-145.50;100.00;65435.88;5055395;28;20546;-72
2023/09/29 10:56:30;;;;;;;4.45;2.05;;;;;;;-145.50;100.00;65435.88;5050607;28;20078;-73
2023/09/29 10:58:58;;;;;;;6.25;2.70;;;;;;;-145.50;100.00;65435.88;5051779;28;20132;-73
2023/09/29 11:01:33;;;;;;;4.70;2.45;;;;;;;-145.50;100.00;65435.88;5038442;28;20064;-73
2023/09/29 11:04:02;;;;;;;6.40;2.65;;;;;;;-145.50;100.00;65435.88;5060899;28;20048;-73
2023/09/29 11:06:29;;;;;;;6.55;2.45;;;;;;;-145.50;100.00;65435.88;5042480;28;20057;-73
2023/09/29 11:08:58;;;;;;;4.93;2.53;;;;;;;-145.50;100.00;65435.88;5054542;28;20392;-73
2023/09/29 11:11:27;;;;;;;5.10;2.33;;;;;;;-145.50;100.00;65435.88;5048895;28;20084;-73
2023/09/29 11:13:54;;;;;;;;;;;;;;;-145.50;100.00;65435.88;5047230;28;20056;-72